Time;durP1;ratioP1;P1;durP2;ratioP2;P2;SDS_P1;SDS_P2;PMS_P1;PMS_P2;Temp;Humidity;BMP_temperature;BMP_pressure;BME280_temperature;BME280_humidity;BME280_pressure;Samples;Min_cycle;Max_cycle;Signal;HPM_P1;HPM_P2
2023/02/26 00:13:24;;;;;;;;;;;1.80;99.90;;;;;;8391658;28;19975;-72
2023/02/26 00:17:28;;;;;;;;;;;1.90;99.90;;;;;;8372398;28;19925;-72
2023/02/26 00:21:31;;;;;;;;;;;1.90;99.90;;;;;;8374979;28;19928;-72
2023/02/26 00:25:32;;;;;;;;;;;2.00;99.90;;;;;;8388981;28;19930;-71
2023/02/26 00:29:34;;;;;;;;;;;2.00;99.90;;;;;;8391067;28;20400;-72
2023/02/26 00:33:36;;;;;;;;;;;2.00;99.90;;;;;;8370550;28;19924;-72
2023/02/26 00:38:00;;;;;;;;;;;2.00;99.90;;;;;;8390516;28;20379;-72
2023/02/26 00:42:02;;;;;;;;;;;1.90;99.90;;;;;;8374511;28;19929;-71
2023/02/26 00:46:23;;;;;;;;;;;1.90;99.90;;;;;;8382117;28;19942;-71
2023/02/26 00:50:26;;;;;;;;;;;1.90;99.90;;;;;;8386678;28;20444;-72
2023/02/26 00:54:29;;;;;;;;;;;1.80;99.90;;;;;;8387184;28;19925;-71
2023/02/26 00:58:30;;;;;;;;;;;1.80;99.90;;;;;;8371665;28;20014;-71
2023/02/26 01:02:36;;;;;;;;;;;1.80;99.90;;;;;;8392938;28;19928;-71
2023/02/26 01:06:41;;;;;;;;;;;1.70;99.90;;;;;;8393401;28;19932;-71
2023/02/26 01:25:57;;;;;;;;;;;1.70;99.90;;;;;;8377837;28;20067;-71
2023/02/26 01:29:58;;;;;;;;;;;1.70;99.90;;;;;;8384867;28;19974;-71
2023/02/26 01:34:24;;;;;;;;;;;1.70;99.90;;;;;;8388331;28;19933;-71
2023/02/26 01:38:27;;;;;;;;;;;1.70;99.90;;;;;;8384322;28;19928;-71
2023/02/26 01:42:34;;;;;;;;;;;1.70;99.90;;;;;;8391082;28;20532;-71
2023/02/26 01:46:45;;;;;;;;;;;1.70;99.90;;;;;;8370325;28;19946;-71
2023/02/26 01:50:47;;;;;;;;;;;1.70;99.90;;;;;;8391575;28;19924;-71
2023/02/26 01:54:49;;;;;;;;;;;1.70;99.90;;;;;;8385859;28;19925;-71
2023/02/26 01:58:52;;;;;;;;;;;1.70;99.90;;;;;;8388371;28;19934;-71
2023/02/26 02:02:53;;;;;;;;;;;1.60;99.90;;;;;;8386040;28;19924;-71
2023/02/26 02:17:09;;;;;;;;;;;1.50;99.90;;;;;;8384212;28;19924;-71
2023/02/26 02:21:16;;;;;;;;;;;1.40;99.90;;;;;;8370956;28;19928;-71
2023/02/26 02:25:39;;;;;;;;;;;1.30;99.90;;;;;;8386170;28;19936;-71
2023/02/26 02:45:14;;;;;;;;;;;1.10;99.90;;;;;;8395297;28;19923;-71
2023/02/26 02:49:34;;;;;;;;;;;1.10;99.90;;;;;;8395050;28;19928;-71
2023/02/26 02:53:42;;;;;;;;;;;1.00;99.90;;;;;;8391893;28;19925;-71
2023/02/26 02:57:51;;;;;;;;;;;1.00;99.90;;;;;;8396871;28;20299;-71
2023/02/26 03:02:00;;;;;;;;;;;1.00;99.90;;;;;;8392590;28;19929;-71
2023/02/26 03:06:02;;;;;;;;;;;0.90;99.90;;;;;;8387116;28;19925;-71
2023/02/26 03:10:04;;;;;;;;;;;0.90;99.90;;;;;;8392856;28;20383;-71
2023/02/26 03:14:09;;;;;;;;;;;0.80;99.90;;;;;;8396396;28;20379;-71
2023/02/26 03:18:10;;;;;;;;;;;0.80;99.90;;;;;;8386471;28;19946;-71
2023/02/26 03:22:16;;;;;;;;;;;0.80;99.90;;;;;;8389344;28;19955;-71
2023/02/26 03:26:21;;;;;;;;;;;0.70;99.90;;;;;;8392575;28;19924;-71
2023/02/26 03:30:33;;;;;;;;;;;0.70;99.90;;;;;;8396590;28;19959;-71
2023/02/26 03:35:02;;;;;;;;;;;0.70;99.90;;;;;;8390922;28;19924;-71
2023/02/26 03:39:08;;;;;;;;;;;0.60;99.90;;;;;;8388896;28;19931;-71
2023/02/26 03:43:17;;;;;;;;;;;0.60;99.90;;;;;;8370624;28;19924;-71
2023/02/26 03:47:19;;;;;;;;;;;0.50;99.90;;;;;;8394536;28;19935;-71
2023/02/26 03:51:21;;;;;;;;;;;0.50;99.90;;;;;;8389440;28;20455;-71
2023/02/26 04:05:35;;;;;;;;;;;0.40;99.90;;;;;;8388119;28;20399;-71
2023/02/26 04:09:36;;;;;;;;;;;0.40;99.90;;;;;;8370635;28;19924;-71
2023/02/26 04:13:38;;;;;;;;;;;0.40;99.90;;;;;;8388564;28;19982;-71
2023/02/26 04:17:40;;;;;;;;;;;0.30;99.90;;;;;;8389780;28;19956;-71
2023/02/26 04:21:41;;;;;;;;;;;0.30;99.90;;;;;;8388978;28;19940;-71
2023/02/26 04:25:43;;;;;;;;;;;0.30;99.90;;;;;;8391004;28;20280;-71
2023/02/26 04:29:44;;;;;;;;;;;0.20;99.90;;;;;;8394116;28;19967;-71
2023/02/26 04:33:46;;;;;;;;;;;0.20;99.90;;;;;;8383324;28;19931;-71
2023/02/26 04:37:48;;;;;;;;;;;0.20;99.90;;;;;;8371499;28;20387;-71
2023/02/26 04:41:49;;;;;;;;;;;0.20;99.90;;;;;;8374657;28;19929;-72
2023/02/26 04:45:51;;;;;;;;;;;0.20;99.90;;;;;;8393672;28;20332;-71
2023/02/26 04:49:53;;;;;;;;;;;0.20;99.90;;;;;;8387946;28;19928;-70
2023/02/26 04:53:54;;;;;;;;;;;0.20;99.90;;;;;;8387583;28;19976;-70
2023/02/26 04:57:56;;;;;;;;;;;0.10;99.90;;;;;;8400516;28;19968;-71
2023/02/26 05:01:58;;;;;;;;;;;0.10;99.90;;;;;;8389215;28;19931;-71
2023/02/26 05:06:00;;;;;;;;;;;0.00;99.90;;;;;;8367739;28;19929;-71
2023/02/26 05:10:03;;;;;;;;;;;0.00;99.90;;;;;;8388030;28;20403;-71
2023/02/26 05:14:04;;;;;;;;;;;0.00;99.90;;;;;;8368777;28;19964;-71
2023/02/26 05:18:06;;;;;;;;;;;-0.10;99.90;;;;;;8370359;28;19925;-71
2023/02/26 05:22:14;;;;;;;;;;;-0.10;99.90;;;;;;8387145;28;20351;-71
2023/02/26 05:26:15;;;;;;;;;;;-0.20;99.90;;;;;;8390039;28;19928;-71
2023/02/26 05:30:17;;;;;;;;;;;-0.20;99.90;;;;;;8391060;28;20022;-71
2023/02/26 05:34:20;;;;;;;;;;;-0.30;99.90;;;;;;8392277;28;21527;-71
2023/02/26 05:38:22;;;;;;;;;;;-0.30;99.90;;;;;;8386509;28;20380;-71
2023/02/26 05:42:24;;;;;;;;;;;-0.40;99.90;;;;;;8385844;28;19935;-71
2023/02/26 05:46:25;;;;;;;;;;;-0.40;99.90;;;;;;8387572;28;19931;-71
2023/02/26 05:50:29;;;;;;;;;;;-0.40;99.90;;;;;;8389302;28;19924;-71
2023/02/26 05:54:30;;;;;;;;;;;-0.50;99.90;;;;;;8387145;28;20305;-71
2023/02/26 05:58:32;;;;;;;;;;;-0.50;99.90;;;;;;8372299;28;19956;-71
2023/02/26 06:12:41;;;;;;;;;;;-0.60;99.90;;;;;;8392417;28;20449;-71
2023/02/26 06:16:43;;;;;;;;;;;-0.60;99.90;;;;;;8395160;28;19934;-71
2023/02/26 06:20:44;;;;;;;;;;;-0.60;99.90;;;;;;8399299;28;20413;-71
2023/02/26 06:24:46;;;;;;;;;;;-0.60;99.90;;;;;;8405631;28;19924;-71
2023/02/26 06:28:48;;;;;;;;;;;-0.60;99.90;;;;;;8382508;28;20384;-71
2023/02/26 06:32:49;;;;;;;;;;;-0.60;99.90;;;;;;8395947;28;19924;-70
2023/02/26 06:36:51;;;;;;;;;;;-0.60;99.90;;;;;;8395607;28;20372;-70
2023/02/26 06:40:52;;;;;;;;;;;-0.60;99.90;;;;;;8375634;28;19932;-71
2023/02/26 06:50:19;;;;;;;;;;;-0.60;99.90;;;;;;8389614;28;19966;-71
2023/02/26 06:54:21;;;;;;;;;;;-0.60;99.90;;;;;;8388757;28;19925;-71
2023/02/26 06:58:23;;;;;;;;;;;-0.60;99.90;;;;;;8377340;28;19924;-71
2023/02/26 07:02:24;;;;;;;;;;;-0.50;99.90;;;;;;8395184;28;20363;-71
2023/02/26 07:06:26;;;;;;;;;;;-0.50;99.90;;;;;;8395369;28;19935;-71
2023/02/26 07:25:39;;;;;;;;;;;-0.10;99.90;;;;;;8392520;28;19919;-71
2023/02/26 07:29:41;;;;;;;;;;;0.10;99.90;;;;;;8372560;28;19931;-71
2023/02/26 07:33:42;;;;;;;;;;;0.20;99.90;;;;;;8399262;28;20372;-71
2023/02/26 07:37:44;;;;;;;;;;;0.40;99.90;;;;;;8393969;28;19931;-71
2023/02/26 07:41:46;;;;;;;;;;;0.50;99.90;;;;;;8370145;28;20340;-71
2023/02/26 07:50:52;;;;;;;;;;;0.80;99.90;;;;;;8392536;28;19982;-71
2023/02/26 07:54:54;;;;;;;;;;;1.00;99.90;;;;;;8395874;28;19924;-71
2023/02/26 07:58:55;;;;;;;;;;;1.10;99.90;;;;;;8393350;28;19925;-71
2023/02/26 08:02:57;;;;;;;;;;;1.20;99.90;;;;;;8390118;28;20260;-72
2023/02/26 08:07:00;;;;;;;;;;;1.40;99.90;;;;;;8377483;28;19935;-71
2023/02/26 08:11:02;;;;;;;;;;;1.50;99.90;;;;;;8395471;28;19936;-71
2023/02/26 08:15:04;;;;;;;;;;;1.70;99.90;;;;;;8384647;28;19932;-71
2023/02/26 08:19:06;;;;;;;;;;;1.80;99.90;;;;;;8387589;28;20284;-71
2023/02/26 08:23:07;;;;;;;;;;;2.00;99.90;;;;;;8391261;28;19924;-71
2023/02/26 08:27:09;;;;;;;;;;;2.10;99.90;;;;;;8371087;28;19960;-71
2023/02/26 08:31:14;;;;;;;;;;;2.20;99.90;;;;;;8386954;28;20357;-71
2023/02/26 08:45:23;;;;;;;;;;;2.70;99.90;;;;;;8384431;28;19919;-71
2023/02/26 08:49:25;;;;;;;;;;;2.80;99.90;;;;;;8384593;28;19967;-71
2023/02/26 08:53:26;;;;;;;;;;;3.00;99.90;;;;;;8386215;28;19976;-71
2023/02/26 09:12:38;;;;;;;;;;;3.40;99.90;;;;;;8384642;28;19966;-71
2023/02/26 09:16:40;;;;;;;;;;;3.50;99.90;;;;;;8381180;28;19971;-71
2023/02/26 09:20:42;;;;;;;;;;;3.60;99.90;;;;;;8388211;28;19928;-71
2023/02/26 09:24:44;;;;;;;;;;;3.70;99.90;;;;;;8388293;28;20004;-71
2023/02/26 09:28:46;;;;;;;;;;;3.80;99.90;;;;;;8382740;28;19924;-71
2023/02/26 09:32:47;;;;;;;;;;;4.00;99.90;;;;;;8386447;28;19924;-71
2023/02/26 09:36:49;;;;;;;;;;;4.10;99.90;;;;;;8380699;28;19981;-71
2023/02/26 09:45:56;;;;;;;;;;;4.50;99.90;;;;;;8385628;28;19923;-71
2023/02/26 09:50:04;;;;;;;;;;;4.70;99.90;;;;;;8374707;28;19924;-71
2023/02/26 09:54:27;;;;;;;;;;;5.00;99.90;;;;;;8372827;28;19971;-71
2023/02/26 09:58:30;;;;;;;;;;;5.30;99.90;;;;;;8390552;28;19938;-71
2023/02/26 10:02:35;;;;;;;;;;;5.70;99.90;;;;;;8374143;28;19939;-71
2023/02/26 10:06:49;;;;;;;;;;;6.10;99.90;;;;;;8384452;28;20400;-71
2023/02/26 10:10:59;;;;;;;;;;;6.60;99.90;;;;;;8385330;28;19967;-71
2023/02/26 10:15:08;;;;;;;;;;;7.00;99.90;;;;;;8394399;28;20304;-71
2023/02/26 10:19:13;;;;;;;;;;;7.20;99.90;;;;;;8398063;28;19967;-71
2023/02/26 10:23:18;;;;;;;;;;;7.30;99.90;;;;;;8387662;28;19924;-71
2023/02/26 10:33:05;;;;;;;;;;;7.60;99.90;;;;;;8371941;28;19955;-71
2023/02/26 10:37:18;;;;;;;;;;;7.90;99.90;;;;;;8367310;28;19925;-71
2023/02/26 10:41:23;;;;;;;;;;;8.30;99.90;;;;;;8379805;28;19924;-71
2023/02/26 10:45:46;;;;;;;;;;;8.80;99.90;;;;;;8385824;28;19928;-71
2023/02/26 10:49:53;;;;;;;;;;;9.40;99.90;;;;;;8386135;28;19925;-71
2023/02/26 10:53:58;;;;;;;;;;;9.90;99.90;;;;;;8373288;28;19932;-71
2023/02/26 10:58:13;;;;;;;;;;;10.30;99.90;;;;;;8394040;28;19978;-71
2023/02/26 11:02:35;;;;;;;;;;;10.50;99.90;;;;;;8393518;28;20296;-72
2023/02/26 11:06:40;;;;;;;;;;;11.00;99.90;;;;;;8403688;28;19925;-71
2023/02/26 11:11:14;;;;;;;;;;;11.40;99.90;;;;;;8388239;28;20388;-71
2023/02/26 11:15:17;;;;;;;;;;;11.70;99.90;;;;;;8345779;28;19931;-72
2023/02/26 11:19:27;;;;;;;;;;;12.00;99.90;;;;;;8376587;28;19928;-71
2023/02/26 11:23:30;;;;;;;;;;;12.40;99.90;;;;;;8371087;28;19929;-71
2023/02/26 11:27:35;;;;;;;;;;;12.80;99.90;;;;;;8389668;28;19925;-72
2023/02/26 11:31:37;;;;;;;;;;;13.10;99.90;;;;;;8391488;28;19963;-72
2023/02/26 11:35:42;;;;;;;;;;;13.30;99.90;;;;;;8388339;28;20004;-72
2023/02/26 11:39:44;;;;;;;;;;;13.50;99.90;;;;;;8366634;28;20398;-72
2023/02/26 11:43:47;;;;;;;;;;;13.70;99.90;;;;;;8369452;28;20395;-72
2023/02/26 11:48:02;;;;;;;;;;;14.00;99.90;;;;;;8366229;28;19936;-72
2023/02/26 11:52:14;;;;;;;;;;;14.30;99.90;;;;;;8349714;28;20432;-72
2023/02/26 11:56:28;;;;;;;;;;;14.40;99.90;;;;;;8370814;28;20031;-72
2023/02/26 12:00:34;;;;;;;;;;;14.40;99.90;;;;;;8375292;28;19925;-72
2023/02/26 12:04:38;;;;;;;;;;;14.70;99.90;;;;;;8367242;28;19931;-72
2023/02/26 12:08:40;;;;;;;;;;;14.90;99.90;;;;;;8367092;28;20035;-71
2023/02/26 12:12:50;;;;;;;;;;;15.40;99.90;;;;;;8344904;28;19924;-71
2023/02/26 12:16:54;;;;;;;;;;;15.80;99.90;;;;;;8367741;28;19924;-72
2023/02/26 12:21:05;;;;;;;;;;;16.00;99.90;;;;;;8385667;28;19970;-72
2023/02/26 12:25:17;;;;;;;;;;;16.00;99.90;;;;;;8380800;28;19967;-72
2023/02/26 12:29:25;;;;;;;;;;;15.90;99.90;;;;;;8345628;28;19929;-71
2023/02/26 12:38:59;;;;;;;;;;;15.90;99.90;;;;;;8360327;28;19923;-69
2023/02/26 12:43:19;;;;;;;;;;;15.80;99.90;;;;;;8340967;28;19982;-70
2023/02/26 12:47:21;;;;;;;;;;;15.60;99.90;;;;;;8359697;28;19925;-70
2023/02/26 12:51:31;;;;;;;;;;;15.60;99.90;;;;;;8363198;28;19939;-69
2023/02/26 12:55:39;;;;;;;;;;;15.30;99.90;;;;;;8361406;28;19979;-69
2023/02/26 12:59:41;;;;;;;;;;;15.20;99.90;;;;;;8366220;28;20023;-69
2023/02/26 13:03:52;;;;;;;;;;;15.60;99.90;;;;;;8363947;28;19928;-69
2023/02/26 13:08:13;;;;;;;;;;;15.60;99.90;;;;;;8375316;28;20287;-70
2023/02/26 13:12:25;;;;;;;;;;;15.70;99.90;;;;;;8343804;28;19979;-69
2023/02/26 13:16:33;;;;;;;;;;;15.20;99.90;;;;;;8381577;28;20382;-69
2023/02/26 13:20:37;;;;;;;;;;;14.40;99.90;;;;;;8362953;28;19924;-69
2023/02/26 13:24:45;;;;;;;;;;;13.70;99.90;;;;;;8369806;28;19934;-71
2023/02/26 13:28:53;;;;;;;;;;;13.00;99.90;;;;;;8363649;28;19932;-71
2023/02/26 13:32:56;;;;;;;;;;;12.60;99.90;;;;;;8365935;28;19924;-71
2023/02/26 13:36:59;;;;;;;;;;;12.40;99.90;;;;;;8363384;28;19924;-71
2023/02/26 13:41:10;;;;;;;;;;;12.20;99.90;;;;;;8362585;28;19955;-71
2023/02/26 13:45:30;;;;;;;;;;;12.20;99.90;;;;;;8375328;28;20279;-71
2023/02/26 13:49:38;;;;;;;;;;;12.00;99.90;;;;;;8363256;28;19967;-71
2023/02/26 13:53:40;;;;;;;;;;;12.00;99.90;;;;;;8377134;28;20027;-71
2023/02/26 13:57:50;;;;;;;;;;;11.90;99.90;;;;;;8361609;28;19925;-71
2023/02/26 14:01:53;;;;;;;;;;;11.80;99.90;;;;;;8366042;28;20284;-71
2023/02/26 14:06:22;;;;;;;;;;;11.70;99.90;;;;;;8366266;28;20331;-71
2023/02/26 14:10:32;;;;;;;;;;;11.70;99.90;;;;;;8361575;28;19932;-71
2023/02/26 14:14:41;;;;;;;;;;;11.60;99.90;;;;;;8344257;28;19940;-71
2023/02/26 14:18:45;;;;;;;;;;;11.40;99.90;;;;;;8358128;28;20043;-71
2023/02/26 14:22:50;;;;;;;;;;;11.40;99.90;;;;;;8370835;28;20783;-71
2023/02/26 14:27:06;;;;;;;;;;;11.30;99.90;;;;;;8358838;28;20059;-71
2023/02/26 14:31:12;;;;;;;;;;;11.30;99.90;;;;;;8362324;28;20738;-71
2023/02/26 14:35:22;;;;;;;;;;;11.40;99.90;;;;;;8370761;28;19935;-71
2023/02/26 14:39:28;;;;;;;;;;;11.60;99.90;;;;;;8355365;28;19925;-71
2023/02/26 14:43:37;;;;;;;;;;;12.40;99.90;;;;;;8369594;28;20388;-71
2023/02/26 14:47:39;;;;;;;;;;;13.30;99.90;;;;;;8352906;28;19931;-71
2023/02/26 14:51:50;;;;;;;;;;;13.80;99.90;;;;;;8369266;28;19931;-71
2023/02/26 14:56:11;;;;;;;;;;;14.20;99.90;;;;;;8367808;28;19968;-71
2023/02/26 15:00:31;;;;;;;;;;;14.60;99.90;;;;;;8371649;28;20350;-71
2023/02/26 15:09:40;;;;;;;;;;;16.20;99.90;;;;;;8364295;28;19943;-72
2023/02/26 15:13:49;;;;;;;;;;;17.20;99.90;;;;;;8366774;28;19935;-72
2023/02/26 15:33:03;;;;;;;;;;;17.40;99.90;;;;;;8363435;28;19927;-72
2023/02/26 15:37:04;;;;;;;;;;;17.00;99.90;;;;;;8369274;28;19935;-71
2023/02/26 15:41:06;;;;;;;;;;;16.40;99.90;;;;;;8366828;28;19925;-71
2023/02/26 15:45:12;;;;;;;;;;;15.80;99.90;;;;;;8365353;28;20288;-71
2023/02/26 15:49:23;;;;;;;;;;;15.20;99.90;;;;;;8367246;28;19982;-71
2023/02/26 15:53:28;;;;;;;;;;;15.00;99.90;;;;;;8370252;28;19964;-72
2023/02/26 15:57:30;;;;;;;;;;;15.10;99.90;;;;;;8368997;28;20535;-72
2023/02/26 16:11:34;;;;;;;;;;;15.00;99.90;;;;;;8368164;28;19962;-71
2023/02/26 16:15:36;;;;;;;;;;;14.60;99.90;;;;;;8368360;28;19954;-72
2023/02/26 16:19:43;;;;;;;;;;;14.10;99.90;;;;;;8363704;28;19970;-71
2023/02/26 16:23:52;;;;;;;;;;;14.00;99.90;;;;;;8347701;28;19928;-72
2023/02/26 16:32:57;;;;;;;;;;;12.90;99.90;;;;;;8349517;28;20323;-71
2023/02/26 16:37:09;;;;;;;;;;;12.30;99.90;;;;;;8369389;28;20430;-71
2023/02/26 16:41:11;;;;;;;;;;;11.90;99.30;;;;;;8366922;28;19929;-71
2023/02/26 16:45:15;;;;;;;;;;;11.50;99.00;;;;;;8370116;28;20094;-71
2023/02/26 16:49:17;;;;;;;;;;;11.10;99.00;;;;;;8384831;28;19928;-71
2023/02/26 16:53:19;;;;;;;;;;;10.70;98.90;;;;;;8387023;28;19963;-71
2023/02/26 16:57:25;;;;;;;;;;;10.30;98.90;;;;;;8366447;28;19928;-71
2023/02/26 17:01:26;;;;;;;;;;;10.00;98.80;;;;;;8347561;28;20343;-71
2023/02/26 17:05:30;;;;;;;;;;;9.80;99.20;;;;;;8368674;28;19929;-71
2023/02/26 17:09:39;;;;;;;;;;;9.60;99.00;;;;;;8363746;28;19929;-71
2023/02/26 17:13:41;;;;;;;;;;;9.40;98.90;;;;;;8364261;28;20011;-71
2023/02/26 17:17:43;;;;;;;;;;;9.20;98.60;;;;;;8360013;28;19929;-71
2023/02/26 17:21:49;;;;;;;;;;;9.00;98.60;;;;;;8379763;28;19924;-71
2023/02/26 17:25:54;;;;;;;;;;;8.80;98.50;;;;;;8365182;28;19968;-70
2023/02/26 17:29:56;;;;;;;;;;;8.60;98.30;;;;;;8364676;28;19924;-70
2023/02/26 17:33:58;;;;;;;;;;;8.50;98.30;;;;;;8362804;28;19937;-70
2023/02/26 17:38:00;;;;;;;;;;;8.30;98.10;;;;;;8361957;28;19932;-71
2023/02/26 17:42:01;;;;;;;;;;;8.20;98.20;;;;;;8364898;28;19925;-71
2023/02/26 17:46:03;;;;;;;;;;;8.10;98.10;;;;;;8360528;28;20299;-71
2023/02/26 17:50:23;;;;;;;;;;;7.90;98.10;;;;;;8360926;28;20323;-71
2023/02/26 17:54:25;;;;;;;;;;;7.80;98.10;;;;;;8343343;28;19924;-71
2023/02/26 17:58:28;;;;;;;;;;;7.70;98.10;;;;;;8364192;28;19967;-71
2023/02/26 18:02:30;;;;;;;;;;;7.60;98.00;;;;;;8382964;28;20018;-71
2023/02/26 18:06:33;;;;;;;;;;;7.50;97.90;;;;;;8382061;28;19939;-70
2023/02/26 18:10:35;;;;;;;;;;;7.40;97.90;;;;;;8370136;28;20323;-71
2023/02/26 18:14:36;;;;;;;;;;;7.30;97.80;;;;;;8378772;28;19936;-71
2023/02/26 18:18:38;;;;;;;;;;;7.20;97.80;;;;;;8366951;28;20372;-71
2023/02/26 18:22:39;;;;;;;;;;;7.20;97.80;;;;;;8374998;28;19963;-71
2023/02/26 18:26:41;;;;;;;;;;;7.10;97.70;;;;;;8367976;28;19928;-71
2023/02/26 18:30:43;;;;;;;;;;;7.00;97.60;;;;;;8370290;28;19924;-71
2023/02/26 18:34:45;;;;;;;;;;;6.90;97.50;;;;;;8367259;28;19932;-71
2023/02/26 18:38:47;;;;;;;;;;;6.80;97.50;;;;;;8359454;28;20019;-71
2023/02/26 18:42:49;;;;;;;;;;;6.70;97.50;;;;;;8370055;28;19925;-71
2023/02/26 18:46:50;;;;;;;;;;;6.70;97.40;;;;;;8370700;28;19963;-71
2023/02/26 18:50:54;;;;;;;;;;;6.60;97.40;;;;;;8367172;28;19944;-71
2023/02/26 18:54:56;;;;;;;;;;;6.50;97.30;;;;;;8352361;28;20299;-71
2023/02/26 18:58:57;;;;;;;;;;;6.50;97.30;;;;;;8367678;28;20003;-71
2023/02/26 19:02:59;;;;;;;;;;;6.40;97.20;;;;;;8368280;28;19928;-71
2023/02/26 19:07:01;;;;;;;;;;;6.30;97.10;;;;;;8371284;28;19935;-71
2023/02/26 19:11:02;;;;;;;;;;;6.20;97.10;;;;;;8384526;28;19925;-71
2023/02/26 19:15:04;;;;;;;;;;;6.10;97.10;;;;;;8360289;28;19924;-71
2023/02/26 19:19:08;;;;;;;;;;;6.10;97.00;;;;;;8370145;28;19924;-71
2023/02/26 19:23:11;;;;;;;;;;;6.10;96.90;;;;;;8368638;28;19939;-71
2023/02/26 19:27:13;;;;;;;;;;;6.00;96.80;;;;;;8365483;28;19932;-71
2023/02/26 19:31:17;;;;;;;;;;;6.00;96.90;;;;;;8373664;28;20304;-71
2023/02/26 19:35:20;;;;;;;;;;;5.90;96.80;;;;;;8366989;28;19935;-71
2023/02/26 19:39:22;;;;;;;;;;;5.90;96.80;;;;;;8370797;28;19975;-71
2023/02/26 19:43:23;;;;;;;;;;;5.90;96.80;;;;;;8379039;28;20465;-71
2023/02/26 19:47:25;;;;;;;;;;;5.80;96.70;;;;;;8369213;28;19960;-70
2023/02/26 19:51:27;;;;;;;;;;;5.80;96.70;;;;;;8372257;28;19959;-70
2023/02/26 19:55:29;;;;;;;;;;;5.80;96.60;;;;;;8348574;28;19928;-71
2023/02/26 19:59:31;;;;;;;;;;;5.70;96.50;;;;;;8367502;28;19928;-71
2023/02/26 20:03:32;;;;;;;;;;;5.60;96.40;;;;;;8366697;28;20011;-71
2023/02/26 20:07:34;;;;;;;;;;;5.50;96.30;;;;;;8361714;28;19936;-71
2023/02/26 20:11:37;;;;;;;;;;;5.40;96.30;;;;;;8363843;28;19928;-71
2023/02/26 20:15:39;;;;;;;;;;;5.30;96.20;;;;;;8356629;28;19932;-71
2023/02/26 20:19:40;;;;;;;;;;;5.30;96.10;;;;;;8368171;28;19929;-71
2023/02/26 20:23:42;;;;;;;;;;;5.20;96.10;;;;;;8366167;28;19950;-71
2023/02/26 20:37:51;;;;;;;;;;;4.90;95.90;;;;;;8354709;28;19967;-71
2023/02/26 20:41:53;;;;;;;;;;;4.80;95.80;;;;;;8368037;28;19971;-71
2023/02/26 20:45:55;;;;;;;;;;;4.70;95.80;;;;;;8366306;28;19933;-71
2023/02/26 20:49:57;;;;;;;;;;;4.60;95.90;;;;;;8348872;28;19950;-71
2023/02/26 20:53:58;;;;;;;;;;;4.60;95.60;;;;;;8365241;28;19932;-71
2023/02/26 20:58:00;;;;;;;;;;;4.50;95.60;;;;;;8365718;28;20272;-71
2023/02/26 21:02:02;;;;;;;;;;;4.40;95.90;;;;;;8365953;28;20334;-70
2023/02/26 21:06:04;;;;;;;;;;;4.30;95.60;;;;;;8366655;28;19925;-71
2023/02/26 21:10:06;;;;;;;;;;;4.20;95.60;;;;;;8363576;28;19924;-71
2023/02/26 21:14:08;;;;;;;;;;;4.20;95.60;;;;;;8364902;28;19936;-71
2023/02/26 21:18:10;;;;;;;;;;;4.00;95.40;;;;;;8383568;28;20373;-71
2023/02/26 21:22:12;;;;;;;;;;;3.90;95.30;;;;;;8363939;28;19932;-70
2023/02/26 21:26:13;;;;;;;;;;;3.70;95.20;;;;;;8371566;28;24246;-70
2023/02/26 21:30:15;;;;;;;;;;;3.50;95.40;;;;;;8366871;28;19933;-71
2023/02/26 21:34:17;;;;;;;;;;;3.40;95.20;;;;;;8368236;28;20311;-71
2023/02/26 21:38:34;;;;;;;;;;;3.30;95.30;;;;;;8365599;28;19933;-71
2023/02/26 21:42:35;;;;;;;;;;;3.20;95.30;;;;;;8365307;28;19934;-71
2023/02/26 21:46:37;;;;;;;;;;;3.10;95.30;;;;;;8360603;28;19979;-71
2023/02/26 21:50:39;;;;;;;;;;;3.10;95.20;;;;;;8369573;28;19928;-71
2023/02/26 21:54:40;;;;;;;;;;;3.00;95.20;;;;;;8363828;28;19925;-71
2023/02/26 21:58:42;;;;;;;;;;;2.90;95.00;;;;;;8342065;28;19952;-71
2023/02/26 22:02:44;;;;;;;;;;;2.80;95.00;;;;;;8371458;28;19948;-71
2023/02/26 22:06:45;;;;;;;;;;;2.80;95.10;;;;;;8389950;28;19924;-71
2023/02/26 22:10:47;;;;;;;;;;;2.70;95.20;;;;;;8390055;28;19924;-71
2023/02/26 22:14:49;;;;;;;;;;;2.70;95.80;;;;;;8389699;28;19924;-71
2023/02/26 22:18:50;;;;;;;;;;;2.60;96.20;;;;;;8388021;28;19947;-71
2023/02/26 22:22:52;;;;;;;;;;;2.60;95.50;;;;;;8391060;28;19925;-71
2023/02/26 22:26:54;;;;;;;;;;;2.50;95.40;;;;;;8395168;28;20296;-71
2023/02/26 22:30:55;;;;;;;;;;;2.50;95.20;;;;;;8388373;28;19971;-71
2023/02/26 22:34:58;;;;;;;;;;;2.40;95.20;;;;;;8388440;28;19935;-71
2023/02/26 22:38:59;;;;;;;;;;;2.40;95.20;;;;;;8388094;28;19932;-70
2023/02/26 22:43:01;;;;;;;;;;;2.40;95.10;;;;;;8380180;28;19938;-70
2023/02/26 22:47:03;;;;;;;;;;;2.30;95.10;;;;;;8377772;28;19947;-70
2023/02/26 22:51:05;;;;;;;;;;;2.30;95.20;;;;;;8389976;28;19940;-71
2023/02/26 22:55:07;;;;;;;;;;;2.20;95.10;;;;;;8395693;28;19975;-71
2023/02/26 22:59:09;;;;;;;;;;;2.20;95.20;;;;;;8396476;28;19968;-71
2023/02/26 23:03:10;;;;;;;;;;;2.20;95.30;;;;;;8393291;28;19968;-71
2023/02/26 23:07:12;;;;;;;;;;;2.20;95.30;;;;;;8395302;28;20402;-71
2023/02/26 23:11:14;;;;;;;;;;;2.20;95.40;;;;;;8376310;28;19951;-71
2023/02/26 23:15:16;;;;;;;;;;;2.10;95.40;;;;;;8395480;28;20292;-71
2023/02/26 23:19:17;;;;;;;;;;;2.10;95.40;;;;;;8396199;28;19960;-71
2023/02/26 23:23:19;;;;;;;;;;;2.00;95.50;;;;;;8395463;28;20039;-71
2023/02/26 23:27:21;;;;;;;;;;;2.00;95.40;;;;;;8388230;28;20395;-71
2023/02/26 23:31:23;;;;;;;;;;;2.00;95.80;;;;;;8379917;28;19986;-71
2023/02/26 23:35:25;;;;;;;;;;;2.00;95.70;;;;;;8376006;28;19928;-71
2023/02/26 23:39:27;;;;;;;;;;;2.00;95.60;;;;;;8385855;28;19964;-71
2023/02/26 23:43:29;;;;;;;;;;;2.00;95.80;;;;;;8395732;28;20011;-71
2023/02/26 23:47:30;;;;;;;;;;;2.10;96.20;;;;;;8399337;28;19925;-71
2023/02/26 23:51:32;;;;;;;;;;;2.10;96.10;;;;;;8390999;28;19932;-70
2023/02/26 23:55:33;;;;;;;;;;;2.10;95.90;;;;;;8377010;28;20352;-71
2023/02/26 23:59:35;;;;;;;;;;;2.00;96.20;;;;;;8386401;28;19979;-71
